Time,TemperatureF,DewpointF,PressureIn,WindDirection,WindDirectionDegrees,WindSpeedMPH,WindSpeedGustMPH,Humidity,HourlyPrecipIn,Conditions,Clouds,dailyrainin,SoftwareType,DateUTC
2013-01-16 00:02:00,35.0,32.0,-100.00,North,-999,-999.0,-999.0,89,-99.99,,,-99.99,,2013-01-16 09:02:00,
2013-01-16 00:11:00,35.0,32.0,-100.00,North,-999,-999.0,-999.0,89,-99.99,,,-99.99,,2013-01-16 09:11:00,
2013-01-16 00:22:00,34.0,31.0,-100.00,SE,125,2.0,2.0,89,-99.99,,,-99.99,,2013-01-16 09:22:00,
2013-01-16 00:32:00,34.0,31.0,-100.00,SE,125,2.0,2.0,89,-99.99,,,-99.99,,2013-01-16 09:32:00,
2013-01-16 00:42:00,34.0,31.0,-100.00,SE,125,2.0,2.0,89,-99.99,,,-99.99,,2013-01-16 09:42:00,
2013-01-16 00:52:00,34.0,31.0,-100.00,South,190,0.0,1.0,89,-99.99,,,-99.99,,2013-01-16 09:52:00,
2013-01-16 01:02:00,34.0,31.0,-100.00,South,190,0.0,1.0,89,-99.99,,,-99.99,,2013-01-16 10:02:00,
2013-01-16 01:12:00,34.0,31.0,-100.00,South,190,0.0,1.0,89,-99.99,,,-99.99,,2013-01-16 10:12:00,
2013-01-16 01:22:00,34.0,31.0,-100.00,SE,130,1.0,2.0,89,-99.99,,,-99.99,,2013-01-16 10:22:00,
2013-01-16 01:32:00,34.0,31.0,-100.00,SE,130,1.0,2.0,89,-99.99,,,-99.99,,2013-01-16 10:32:00,
2013-01-16 01:42:00,34.0,31.0,-100.00,SE,130,1.0,2.0,89,-99.99,,,-99.99,,2013-01-16 10:42:00,
2013-01-16 01:52:00,34.0,31.0,-100.00,SE,130,2.0,3.0,89,-99.99,,,-99.99,,2013-01-16 10:52:00,
2013-01-16 02:02:00,34.0,31.0,-100.00,SE,130,2.0,3.0,89,-99.99,,,-99.99,,2013-01-16 11:02:00,
2013-01-16 02:11:00,34.0,31.0,-100.00,SE,130,2.0,3.0,89,-99.99,,,-99.99,,2013-01-16 11:11:00,
2013-01-16 02:22:00,34.0,31.0,-100.00,SE,135,1.0,2.0,89,-99.99,,,-99.99,,2013-01-16 11:22:00,
2013-01-16 02:32:00,34.0,31.0,-100.00,SE,135,1.0,2.0,89,-99.99,,,-99.99,,2013-01-16 11:32:00,
2013-01-16 02:42:00,34.0,31.0,-100.00,SE,135,1.0,2.0,89,-99.99,,,-99.99,,2013-01-16 11:42:00,
2013-01-16 02:52:00,35.0,33.0,-100.00,North,-999,-999.0,-999.0,89,-99.99,,,-99.99,,2013-01-16 11:52:00,
2013-01-16 03:03:00,35.0,33.0,-100.00,North,-999,-999.0,-999.0,89,-99.99,,,-99.99,,2013-01-16 12:03:00,
2013-01-16 03:12:00,35.0,33.0,-100.00,North,-999,-999.0,-999.0,89,-99.99,,,-99.99,,2013-01-16 12:12:00,
2013-01-16 03:22:00,35.0,33.0,-100.00,East,90,1.0,3.0,89,-99.99,,,-99.99,,2013-01-16 12:22:00,
2013-01-16 03:33:00,35.0,33.0,-100.00,East,90,1.0,3.0,89,-99.99,,,-99.99,,2013-01-16 12:33:00,
2013-01-16 03:42:00,35.0,33.0,-100.00,East,90,1.0,3.0,89,-99.99,,,-99.99,,2013-01-16 12:42:00,
2013-01-16 03:52:00,35.0,33.0,-100.00,ESE,115,4.0,6.0,89,-99.99,,,-99.99,,2013-01-16 12:52:00,
2013-01-16 04:02:00,35.0,33.0,-100.00,ESE,115,4.0,6.0,89,-99.99,,,-99.99,,2013-01-16 13:02:00,
2013-01-16 04:12:00,35.0,33.0,-100.00,ESE,115,4.0,6.0,89,-99.99,,,-99.99,,2013-01-16 13:12:00,
2013-01-16 04:22:00,35.0,32.0,-100.00,SE,130,1.0,2.0,89,-99.99,,,-99.99,,2013-01-16 13:22:00,
2013-01-16 04:32:00,35.0,32.0,-100.00,SE,130,1.0,2.0,89,-99.99,,,-99.99,,2013-01-16 13:32:00,
2013-01-16 04:42:00,35.0,32.0,-100.00,SE,130,1.0,2.0,89,-99.99,,,-99.99,,2013-01-16 13:42:00,
2013-01-16 04:52:00,34.0,31.0,-100.00,SE,140,0.0,3.0,89,-99.99,,,-99.99,,2013-01-16 13:52:00,
2013-01-16 05:03:00,34.0,31.0,-100.00,SE,140,0.0,3.0,89,-99.99,,,-99.99,,2013-01-16 14:03:00,
2013-01-16 05:12:00,34.0,31.0,-100.00,SE,140,0.0,3.0,89,-99.99,,,-99.99,,2013-01-16 14:12:00,
2013-01-16 05:22:00,34.0,31.0,-100.00,South,180,0.0,2.0,89,-99.99,,,-99.99,,2013-01-16 14:22:00,
2013-01-16 05:32:00,34.0,31.0,-100.00,South,180,0.0,2.0,89,-99.99,,,-99.99,,2013-01-16 14:32:00,
2013-01-16 05:42:00,34.0,31.0,-100.00,South,180,0.0,2.0,89,-99.99,,,-99.99,,2013-01-16 14:42:00,
2013-01-16 05:53:00,34.0,31.0,-100.00,ESE,115,1.0,2.0,89,-99.99,,,-99.99,,2013-01-16 14:53:00,
2013-01-16 06:03:00,34.0,31.0,-100.00,ESE,115,1.0,2.0,89,-99.99,,,-99.99,,2013-01-16 15:03:00,
2013-01-16 06:12:00,34.0,31.0,-100.00,ESE,115,1.0,2.0,89,-99.99,,,-99.99,,2013-01-16 15:12:00,
2013-01-16 06:22:00,34.0,31.0,-100.00,ESE,115,1.0,2.0,89,-99.99,,,-99.99,,2013-01-16 15:22:00,